sensor_id;sensor_type;location;lat;lon;timestamp;pressure;altitude;pressure_sealevel;temperature;humidity
71057;BME280;58380;48.312;9.246;2022-07-09T06:28:40;94648.19;;;13.79;70.08
71057;BME280;58380;48.312;9.246;2022-07-09T06:31:08;94636.59;;;13.86;71.47
71057;BME280;58380;48.312;9.246;2022-07-09T06:33:37;94653.00;;;14.20;69.73
71057;BME280;58380;48.312;9.246;2022-07-09T06:36:06;94652.38;;;14.45;71.05
71057;BME280;58380;48.312;9.246;2022-07-09T06:38:35;94640.03;;;14.61;68.69
71057;BME280;58380;48.312;9.246;2022-07-09T06:41:26;94630.59;;;14.85;69.49
71057;BME280;58380;48.312;9.246;2022-07-09T06:43:55;94657.81;;;15.13;67.70
71057;BME280;58380;48.312;9.246;2022-07-09T06:46:26;94573.09;;;14.69;67.62
71057;BME280;58380;48.312;9.246;2022-07-09T06:48:55;94634.19;;;15.37;66.49
71057;BME280;58380;48.312;9.246;2022-07-09T06:51:23;94574.28;;;15.09;65.24
71057;BME280;58380;48.312;9.246;2022-07-09T06:53:52;94575.13;;;15.30;64.85
71057;BME280;58380;48.312;9.246;2022-07-09T06:56:22;94642.28;;;15.99;63.56
71057;BME280;58380;48.312;9.246;2022-07-09T06:58:54;94575.19;;;15.66;64.05
71057;BME280;58380;48.312;9.246;2022-07-09T07:01:22;94672.09;;;16.57;63.37
71057;BME280;58380;48.312;9.246;2022-07-09T07:03:51;94563.97;;;16.20;64.27
71057;BME280;58380;48.312;9.246;2022-07-09T07:06:20;94579.38;;;16.44;64.54
71057;BME280;58380;48.312;9.246;2022-07-09T07:08:48;94676.16;;;17.30;65.04
71057;BME280;58380;48.312;9.246;2022-07-09T07:11:17;94615.63;;;17.25;63.05
71057;BME280;58380;48.312;9.246;2022-07-09T07:13:46;94652.53;;;17.62;59.58
71057;BME280;58380;48.312;9.246;2022-07-09T07:16:18;94654.19;;;17.98;57.42
71057;BME280;58380;48.312;9.246;2022-07-09T07:18:46;94562.09;;;17.51;55.39
71057;BME280;58380;48.312;9.246;2022-07-09T07:21:15;94536.50;;;17.44;57.39
71057;BME280;58380;48.312;9.246;2022-07-09T07:23:44;94499.09;;;17.15;55.59
71057;BME280;58380;48.312;9.246;2022-07-09T07:26:13;94567.53;;;17.75;55.80
71057;BME280;58380;48.312;9.246;2022-07-09T07:28:42;94476.16;;;17.49;57.45
71057;BME280;58380;48.312;9.246;2022-07-09T07:31:10;94557.28;;;18.16;54.81
71057;BME280;58380;48.312;9.246;2022-07-09T07:33:42;94515.63;;;17.86;50.97
71057;BME280;58380;48.312;9.246;2022-07-09T07:36:11;94508.16;;;17.88;51.61
71057;BME280;58380;48.312;9.246;2022-07-09T07:38:40;94612.75;;;18.29;50.56
71057;BME280;58380;48.312;9.246;2022-07-09T07:41:10;94634.50;;;18.47;55.16
71057;BME280;58380;48.312;9.246;2022-07-09T07:43:39;94535.41;;;18.14;53.84
71057;BME280;58380;48.312;9.246;2022-07-09T07:46:08;94595.50;;;18.94;50.43
71057;BME280;58380;48.312;9.246;2022-07-09T07:48:37;94650.63;;;18.95;49.42
71057;BME280;58380;48.312;9.246;2022-07-09T07:51:09;94653.47;;;18.50;53.08
71057;BME280;58380;48.312;9.246;2022-07-09T07:53:38;94629.50;;;18.40;53.72
71057;BME280;58380;48.312;9.246;2022-07-09T07:56:08;94643.94;;;18.68;51.15
71057;BME280;58380;48.312;9.246;2022-07-09T07:58:37;94646.28;;;18.75;51.09
71057;BME280;58380;48.312;9.246;2022-07-09T08:01:06;94623.41;;;18.35;51.21
71057;BME280;58380;48.312;9.246;2022-07-09T08:03:35;94584.34;;;18.09;55.00
71057;BME280;58380;48.312;9.246;2022-07-09T08:06:04;94533.19;;;17.92;54.96
71057;BME280;58380;48.312;9.246;2022-07-09T08:08:35;94578.56;;;18.26;53.75
71057;BME280;58380;48.312;9.246;2022-07-09T08:11:04;94640.09;;;18.74;51.20
71057;BME280;58380;48.312;9.246;2022-07-09T08:13:33;94462.84;;;17.43;52.08
71057;BME280;58380;48.312;9.246;2022-07-09T08:16:02;94609.53;;;18.57;55.36
71057;BME280;58380;48.312;9.246;2022-07-09T08:18:30;94624.00;;;18.85;55.08
71057;BME280;58380;48.312;9.246;2022-07-09T08:20:59;94589.84;;;18.77;53.21
71057;BME280;58380;48.312;9.246;2022-07-09T08:23:28;94538.22;;;18.76;54.89
71057;BME280;58380;48.312;9.246;2022-07-09T08:25:59;94507.25;;;18.70;52.96
71057;BME280;58380;48.312;9.246;2022-07-09T08:28:28;94517.00;;;18.85;48.52
71057;BME280;58380;48.312;9.246;2022-07-09T08:30:56;94605.81;;;19.06;49.00
71057;BME280;58380;48.312;9.246;2022-07-09T08:33:25;94643.34;;;19.01;50.17
71057;BME280;58380;48.312;9.246;2022-07-09T08:35:54;94640.09;;;18.80;49.93
71057;BME280;58380;48.312;9.246;2022-07-09T08:38:22;94634.19;;;18.83;50.78
71057;BME280;58380;48.312;9.246;2022-07-09T08:40:51;94600.28;;;18.73;50.97
71057;BME280;58380;48.312;9.246;2022-07-09T08:43:24;94628.84;;;19.26;49.52
71057;BME280;58380;48.312;9.246;2022-07-09T08:45:54;94626.44;;;19.05;48.04
71057;BME280;58380;48.312;9.246;2022-07-09T08:48:24;94582.00;;;18.56;50.85
71057;BME280;58380;48.312;9.246;2022-07-09T08:50:53;94631.41;;;18.64;50.76
71057;BME280;58380;48.312;9.246;2022-07-09T08:53:25;94628.63;;;18.50;51.33
71057;BME280;58380;48.312;9.246;2022-07-09T08:55:55;94629.63;;;18.54;52.03
71057;BME280;58380;48.312;9.246;2022-07-09T08:58:27;94621.38;;;18.50;53.88
71057;BME280;58380;48.312;9.246;2022-07-09T09:00:56;94612.53;;;18.55;53.83
71057;BME280;58380;48.312;9.246;2022-07-09T09:03:24;94597.84;;;18.52;51.72
71057;BME280;58380;48.312;9.246;2022-07-09T09:06:00;94609.22;;;18.63;54.18
71057;BME280;58380;48.312;9.246;2022-07-09T09:08:33;94624.22;;;18.88;52.67
71057;BME280;58380;48.312;9.246;2022-07-09T09:11:04;94554.28;;;18.47;54.12
71057;BME280;58380;48.312;9.246;2022-07-09T09:13:39;94584.25;;;18.73;54.12
71057;BME280;58380;48.312;9.246;2022-07-09T09:16:10;94613.63;;;19.02;54.02
71057;BME280;58380;48.312;9.246;2022-07-09T09:18:40;94611.56;;;19.18;53.01
71057;BME280;58380;48.312;9.246;2022-07-09T09:21:11;94609.13;;;19.59;51.63
71057;BME280;58380;48.312;9.246;2022-07-09T09:23:42;94619.75;;;20.02;50.03
71057;BME280;58380;48.312;9.246;2022-07-09T09:26:13;94607.41;;;20.20;49.98
71057;BME280;58380;48.312;9.246;2022-07-09T09:28:51;94552.38;;;19.76;48.50
71057;BME280;58380;48.312;9.246;2022-07-09T09:31:20;94617.59;;;20.18;49.35
71057;BME280;58380;48.312;9.246;2022-07-09T09:33:51;94588.38;;;20.03;51.66
71057;BME280;58380;48.312;9.246;2022-07-09T09:36:28;94567.19;;;19.88;49.48
71057;BME280;58380;48.312;9.246;2022-07-09T09:39:15;94591.34;;;20.01;48.55
71057;BME280;58380;48.312;9.246;2022-07-09T09:41:45;94607.03;;;20.27;48.63
71057;BME280;58380;48.312;9.246;2022-07-09T09:44:19;94603.66;;;20.49;48.86
71057;BME280;58380;48.312;9.246;2022-07-09T09:46:50;94593.19;;;20.66;47.90
71057;BME280;58380;48.312;9.246;2022-07-09T09:49:19;94567.16;;;20.81;45.87
71057;BME280;58380;48.312;9.246;2022-07-09T09:51:51;94581.44;;;21.04;44.96
71057;BME280;58380;48.312;9.246;2022-07-09T09:54:24;94595.66;;;21.18;44.02
71057;BME280;58380;48.312;9.246;2022-07-09T09:56:54;94590.41;;;21.13;43.49
71057;BME280;58380;48.312;9.246;2022-07-09T09:59:25;94585.31;;;21.11;42.25
71057;BME280;58380;48.312;9.246;2022-07-09T10:01:54;94555.38;;;20.49;42.78
71057;BME280;58380;48.312;9.246;2022-07-09T10:04:23;94593.53;;;20.46;45.30
71057;BME280;58380;48.312;9.246;2022-07-09T10:06:54;94575.47;;;20.38;46.81
71057;BME280;58380;48.312;9.246;2022-07-09T10:09:22;94540.72;;;20.00;45.55
71057;BME280;58380;48.312;9.246;2022-07-09T10:11:51;94563.22;;;20.18;46.29
71057;BME280;58380;48.312;9.246;2022-07-09T10:14:32;94578.38;;;20.55;46.92
71057;BME280;58380;48.312;9.246;2022-07-09T10:17:11;94457.97;;;19.66;44.47
71057;BME280;58380;48.312;9.246;2022-07-09T10:19:51;94565.00;;;20.36;47.73
71057;BME280;58380;48.312;9.246;2022-07-09T10:22:21;94573.00;;;20.69;48.29
71057;BME280;58380;48.312;9.246;2022-07-09T10:24:51;94522.03;;;20.69;47.81
71057;BME280;58380;48.312;9.246;2022-07-09T10:27:20;94538.72;;;21.07;46.68
71057;BME280;58380;48.312;9.246;2022-07-09T10:29:56;94564.38;;;21.36;46.06
71057;BME280;58380;48.312;9.246;2022-07-09T10:32:28;94559.81;;;21.50;45.99
71057;BME280;58380;48.312;9.246;2022-07-09T10:34:58;94558.91;;;21.55;43.65
71057;BME280;58380;48.312;9.246;2022-07-09T10:37:34;94558.41;;;21.53;45.81
71057;BME280;58380;48.312;9.246;2022-07-09T10:40:13;94528.31;;;21.42;45.37
71057;BME280;58380;48.312;9.246;2022-07-09T10:42:44;94556.13;;;21.46;41.62
71057;BME280;58380;48.312;9.246;2022-07-09T10:45:28;94561.47;;;20.96;42.66
71057;BME280;58380;48.312;9.246;2022-07-09T10:48:06;94547.56;;;20.66;44.22
71057;BME280;58380;48.312;9.246;2022-07-09T10:50:39;94545.22;;;20.65;45.31
71057;BME280;58380;48.312;9.246;2022-07-09T10:53:10;94507.09;;;20.49;45.63
71057;BME280;58380;48.312;9.246;2022-07-09T10:55:42;94474.81;;;20.54;47.92
71057;BME280;58380;48.312;9.246;2022-07-09T10:58:18;94541.00;;;21.37;46.62
71057;BME280;58380;48.312;9.246;2022-07-09T11:00:56;94544.31;;;21.70;46.34
71057;BME280;58380;48.312;9.246;2022-07-09T11:03:27;94549.72;;;22.01;45.29
71057;BME280;58380;48.312;9.246;2022-07-09T11:05:58;94538.59;;;22.16;46.09
71057;BME280;58380;48.312;9.246;2022-07-09T11:08:27;94504.44;;;22.17;43.25
71057;BME280;58380;48.312;9.246;2022-07-09T11:10:57;94515.63;;;22.10;42.87
71057;BME280;58380;48.312;9.246;2022-07-09T11:13:25;94516.81;;;21.95;42.32
71057;BME280;58380;48.312;9.246;2022-07-09T11:16:00;94539.91;;;21.74;42.87
71057;BME280;58380;48.312;9.246;2022-07-09T11:18:30;94550.47;;;21.34;42.69
71057;BME280;58380;48.312;9.246;2022-07-09T11:20:58;94536.44;;;21.01;43.65
71057;BME280;58380;48.312;9.246;2022-07-09T11:23:27;94493.34;;;20.56;45.33
71057;BME280;58380;48.312;9.246;2022-07-09T11:25:56;94509.72;;;20.68;44.90
71057;BME280;58380;48.312;9.246;2022-07-09T11:28:25;94536.75;;;20.99;46.52
71057;BME280;58380;48.312;9.246;2022-07-09T11:31:01;94536.06;;;21.30;43.97
71057;BME280;58380;48.312;9.246;2022-07-09T11:33:31;94533.19;;;21.63;44.68
71057;BME280;58380;48.312;9.246;2022-07-09T11:36:13;94528.09;;;22.06;44.52
71057;BME280;58380;48.312;9.246;2022-07-09T11:38:47;94506.84;;;21.96;40.67
71057;BME280;58380;48.312;9.246;2022-07-09T11:41:17;94464.22;;;21.49;40.91
71057;BME280;58380;48.312;9.246;2022-07-09T11:43:47;94529.63;;;21.98;43.49
71057;BME280;58380;48.312;9.246;2022-07-09T11:46:19;94494.09;;;22.02;45.70
71057;BME280;58380;48.312;9.246;2022-07-09T11:48:50;94501.81;;;22.26;43.89
71057;BME280;58380;48.312;9.246;2022-07-09T11:51:30;94512.94;;;22.33;40.22
71057;BME280;58380;48.312;9.246;2022-07-09T11:54:00;94513.84;;;22.28;41.60
71057;BME280;58380;48.312;9.246;2022-07-09T11:56:39;94488.81;;;22.19;43.03
71057;BME280;58380;48.312;9.246;2022-07-09T11:59:10;94513.56;;;22.07;41.53
71057;BME280;58380;48.312;9.246;2022-07-09T12:01:42;94497.59;;;22.11;40.88
71057;BME280;58380;48.312;9.246;2022-07-09T12:04:18;94513.00;;;22.19;40.54
71057;BME280;58380;48.312;9.246;2022-07-09T12:06:48;94511.94;;;21.97;40.59
71057;BME280;58380;48.312;9.246;2022-07-09T12:09:27;94505.47;;;21.76;42.36
71057;BME280;58380;48.312;9.246;2022-07-09T12:11:58;94520.13;;;21.70;44.39
71057;BME280;58380;48.312;9.246;2022-07-09T12:14:28;94505.72;;;21.66;46.06
71057;BME280;58380;48.312;9.246;2022-07-09T12:17:00;94507.97;;;21.72;44.72
71057;BME280;58380;48.312;9.246;2022-07-09T12:19:29;94425.91;;;21.21;45.56
71057;BME280;58380;48.312;9.246;2022-07-09T12:21:58;94429.31;;;21.36;46.40
71057;BME280;58380;48.312;9.246;2022-07-09T12:24:26;94496.19;;;21.82;45.02
71057;BME280;58380;48.312;9.246;2022-07-09T12:26:57;94416.56;;;21.19;44.64
71057;BME280;58380;48.312;9.246;2022-07-09T12:29:26;94378.69;;;21.20;46.75
71057;BME280;58380;48.312;9.246;2022-07-09T12:32:00;94497.78;;;22.14;44.91
71057;BME280;58380;48.312;9.246;2022-07-09T12:34:29;94498.22;;;22.08;42.02
71057;BME280;58380;48.312;9.246;2022-07-09T12:36:58;94494.72;;;22.30;41.97
71057;BME280;58380;48.312;9.246;2022-07-09T12:39:27;94477.97;;;22.02;41.80
71057;BME280;58380;48.312;9.246;2022-07-09T12:41:56;94431.22;;;21.35;41.95
71057;BME280;58380;48.312;9.246;2022-07-09T12:44:25;94490.88;;;21.68;44.81
71057;BME280;58380;48.312;9.246;2022-07-09T12:46:54;94482.06;;;21.76;45.10
71057;BME280;58380;48.312;9.246;2022-07-09T12:49:25;94465.84;;;21.82;45.34
71057;BME280;58380;48.312;9.246;2022-07-09T12:51:53;94459.28;;;22.28;47.21
71057;BME280;58380;48.312;9.246;2022-07-09T12:54:22;94471.44;;;22.91;46.23
71057;BME280;58380;48.312;9.246;2022-07-09T12:56:50;94455.34;;;23.26;42.12
71057;BME280;58380;48.312;9.246;2022-07-09T12:59:20;94448.53;;;23.29;38.39
71057;BME280;58380;48.312;9.246;2022-07-09T13:01:50;94459.94;;;22.99;42.27
71057;BME280;58380;48.312;9.246;2022-07-09T13:04:18;94448.84;;;23.18;41.54
71057;BME280;58380;48.312;9.246;2022-07-09T13:06:49;94453.47;;;23.18;38.53
71057;BME280;58380;48.312;9.246;2022-07-09T13:09:19;94460.75;;;23.26;39.31
71057;BME280;58380;48.312;9.246;2022-07-09T13:11:47;94451.41;;;23.32;38.22
71057;BME280;58380;48.312;9.246;2022-07-09T13:14:16;94443.09;;;22.94;38.26
71057;BME280;58380;48.312;9.246;2022-07-09T13:16:45;94418.50;;;22.43;38.38
71057;BME280;58380;48.312;9.246;2022-07-09T13:19:14;94450.47;;;22.53;39.21
71057;BME280;58380;48.312;9.246;2022-07-09T13:21:42;94452.84;;;22.46;37.91
71057;BME280;58380;48.312;9.246;2022-07-09T13:24:13;94454.19;;;22.26;40.35
71057;BME280;58380;48.312;9.246;2022-07-09T13:26:42;94437.75;;;22.28;39.10
71057;BME280;58380;48.312;9.246;2022-07-09T13:29:10;94436.53;;;22.51;38.79
71057;BME280;58380;48.312;9.246;2022-07-09T13:31:39;94437.22;;;22.57;37.46
71057;BME280;58380;48.312;9.246;2022-07-09T13:34:07;94434.81;;;22.55;42.33
71057;BME280;58380;48.312;9.246;2022-07-09T13:36:36;94432.59;;;22.49;41.01
71057;BME280;58380;48.312;9.246;2022-07-09T13:39:04;94424.88;;;22.65;41.18
71057;BME280;58380;48.312;9.246;2022-07-09T13:41:36;94423.19;;;23.03;40.62
71057;BME280;58380;48.312;9.246;2022-07-09T13:44:04;94435.38;;;23.62;39.91
71057;BME280;58380;48.312;9.246;2022-07-09T13:46:33;94428.78;;;24.06;37.85
71057;BME280;58380;48.312;9.246;2022-07-09T13:49:02;94416.72;;;24.33;39.34
71057;BME280;58380;48.312;9.246;2022-07-09T13:51:31;94440.16;;;24.80;36.24
71057;BME280;58380;48.312;9.246;2022-07-09T13:53:59;94434.78;;;24.50;32.87
71057;BME280;58380;48.312;9.246;2022-07-09T13:56:28;94434.13;;;24.15;33.13
71057;BME280;58380;48.312;9.246;2022-07-09T13:58:59;94423.09;;;23.90;33.47
71057;BME280;58380;48.312;9.246;2022-07-09T14:01:27;94429.97;;;23.53;32.67
71057;BME280;58380;48.312;9.246;2022-07-09T14:03:57;94430.47;;;23.20;34.46
71057;BME280;58380;48.312;9.246;2022-07-09T14:06:25;94406.88;;;23.00;34.51
71057;BME280;58380;48.312;9.246;2022-07-09T14:08:55;94412.41;;;22.95;34.25
71057;BME280;58380;48.312;9.246;2022-07-09T14:11:24;94400.03;;;22.68;35.55
71057;BME280;58380;48.312;9.246;2022-07-09T14:13:52;94399.72;;;22.69;35.32
71057;BME280;58380;48.312;9.246;2022-07-09T14:16:25;94402.72;;;22.68;37.19
71057;BME280;58380;48.312;9.246;2022-07-09T14:18:54;94412.38;;;22.60;40.19
71057;BME280;58380;48.312;9.246;2022-07-09T14:21:22;94415.69;;;22.57;40.18
71057;BME280;58380;48.312;9.246;2022-07-09T14:23:51;94408.06;;;22.42;39.36
71057;BME280;58380;48.312;9.246;2022-07-09T14:26:19;94404.63;;;22.18;42.82
71057;BME280;58380;48.312;9.246;2022-07-09T14:28:48;94405.00;;;22.26;43.25
71057;BME280;58380;48.312;9.246;2022-07-09T14:31:16;94375.97;;;22.14;43.56
71057;BME280;58380;48.312;9.246;2022-07-09T14:33:47;94413.16;;;22.52;42.97
71057;BME280;58380;48.312;9.246;2022-07-09T14:36:16;94407.47;;;22.71;42.34
71057;BME280;58380;48.312;9.246;2022-07-09T14:38:44;94342.88;;;22.45;43.75
71057;BME280;58380;48.312;9.246;2022-07-09T14:41:13;94379.94;;;22.82;42.00
71057;BME280;58380;48.312;9.246;2022-07-09T14:43:42;94397.06;;;23.21;41.56
71057;BME280;58380;48.312;9.246;2022-07-09T14:46:10;94390.69;;;22.91;39.92
71057;BME280;58380;48.312;9.246;2022-07-09T14:48:39;94404.97;;;23.00;42.19
71057;BME280;58380;48.312;9.246;2022-07-09T14:51:11;94399.72;;;22.95;44.73
71057;BME280;58380;48.312;9.246;2022-07-09T14:53:39;94399.41;;;22.97;44.39
71057;BME280;58380;48.312;9.246;2022-07-09T14:56:08;94370.41;;;22.76;44.02
71057;BME280;58380;48.312;9.246;2022-07-09T14:58:36;94396.41;;;22.90;44.15
71057;BME280;58380;48.312;9.246;2022-07-09T15:01:05;94388.63;;;22.88;42.44
71057;BME280;58380;48.312;9.246;2022-07-09T15:03:34;94393.69;;;22.81;43.03
71057;BME280;58380;48.312;9.246;2022-07-09T15:06:03;94394.50;;;22.90;40.67
71057;BME280;58380;48.312;9.246;2022-07-09T15:08:34;94397.38;;;23.02;42.56
71057;BME280;58380;48.312;9.246;2022-07-09T15:11:03;94398.47;;;22.84;40.28
71057;BME280;58380;48.312;9.246;2022-07-09T15:13:32;94394.75;;;22.45;41.62
71057;BME280;58380;48.312;9.246;2022-07-09T15:16:00;94385.38;;;22.34;42.95
71057;BME280;58380;48.312;9.246;2022-07-09T15:18:29;94386.41;;;22.64;43.38
71057;BME280;58380;48.312;9.246;2022-07-09T15:20:57;94375.19;;;23.23;41.23
71057;BME280;58380;48.312;9.246;2022-07-09T15:23:26;94373.03;;;23.72;41.37
71057;BME280;58380;48.312;9.246;2022-07-09T15:25:57;94383.22;;;24.05;41.02
71057;BME280;58380;48.312;9.246;2022-07-09T15:28:26;94379.31;;;23.94;39.59
71057;BME280;58380;48.312;9.246;2022-07-09T15:30:54;94384.84;;;23.97;39.10
71057;BME280;58380;48.312;9.246;2022-07-09T15:33:23;94380.38;;;23.54;40.09
71057;BME280;58380;48.312;9.246;2022-07-09T15:35:51;94350.44;;;23.38;39.37
71057;BME280;58380;48.312;9.246;2022-07-09T15:38:20;94376.16;;;23.92;38.54
71057;BME280;58380;48.312;9.246;2022-07-09T15:40:48;94348.75;;;23.81;37.67
71057;BME280;58380;48.312;9.246;2022-07-09T15:43:19;94370.69;;;23.62;38.68
71057;BME280;58380;48.312;9.246;2022-07-09T15:45:48;94364.94;;;23.63;39.41
71057;BME280;58380;48.312;9.246;2022-07-09T15:48:16;94369.41;;;23.77;38.83
71057;BME280;58380;48.312;9.246;2022-07-09T15:50:47;94350.78;;;24.22;39.71
71057;BME280;58380;48.312;9.246;2022-07-09T15:53:16;94365.19;;;24.56;39.48
71057;BME280;58380;48.312;9.246;2022-07-09T15:55:45;94348.09;;;24.43;38.60
71057;BME280;58380;48.312;9.246;2022-07-09T15:58:14;94330.31;;;23.92;40.71
71057;BME280;58380;48.312;9.246;2022-07-09T16:00:45;94350.69;;;24.10;39.99
71057;BME280;58380;48.312;9.246;2022-07-09T16:03:13;94356.25;;;24.64;40.34
71057;BME280;58380;48.312;9.246;2022-07-09T16:05:42;94335.63;;;25.02;39.57
71057;BME280;58380;48.312;9.246;2022-07-09T16:08:10;94339.91;;;25.24;38.10
71057;BME280;58380;48.312;9.246;2022-07-09T16:10:40;94341.81;;;25.23;39.20
71057;BME280;58380;48.312;9.246;2022-07-09T16:13:09;94343.16;;;25.17;40.23
71057;BME280;58380;48.312;9.246;2022-07-09T16:15:35;94343.56;;;24.35;38.47
71057;BME280;58380;48.312;9.246;2022-07-09T16:18:06;94341.75;;;24.18;39.79
71057;BME280;58380;48.312;9.246;2022-07-09T16:20:35;94337.25;;;24.01;39.84
71057;BME280;58380;48.312;9.246;2022-07-09T16:23:04;94347.81;;;23.77;41.64
71057;BME280;58380;48.312;9.246;2022-07-09T16:25:32;94340.69;;;23.63;41.53
71057;BME280;58380;48.312;9.246;2022-07-09T16:28:01;94340.94;;;23.32;41.39
71057;BME280;58380;48.312;9.246;2022-07-09T16:30:30;94341.94;;;23.19;41.79
71057;BME280;58380;48.312;9.246;2022-07-09T16:32:59;94287.78;;;22.77;41.49
71057;BME280;58380;48.312;9.246;2022-07-09T16:35:30;94333.22;;;22.70;41.24
71057;BME280;58380;48.312;9.246;2022-07-09T16:37:59;94329.47;;;22.13;42.16
71057;BME280;58380;48.312;9.246;2022-07-09T16:40:27;94330.41;;;22.00;43.04
71057;BME280;58380;48.312;9.246;2022-07-09T16:42:56;94315.25;;;22.13;44.48
71057;BME280;58380;48.312;9.246;2022-07-09T16:45:24;94331.00;;;22.37;43.69
71057;BME280;58380;48.312;9.246;2022-07-09T16:47:53;94317.84;;;22.35;42.80
71057;BME280;58380;48.312;9.246;2022-07-09T16:50:22;94270.38;;;22.22;45.32
71057;BME280;58380;48.312;9.246;2022-07-09T16:52:53;94328.31;;;22.63;42.77
71057;BME280;58380;48.312;9.246;2022-07-09T16:55:22;94317.84;;;22.53;43.79
71057;BME280;58380;48.312;9.246;2022-07-09T16:57:50;94324.19;;;22.57;44.68
71057;BME280;58380;48.312;9.246;2022-07-09T17:00:19;94303.47;;;22.40;44.35
71057;BME280;58380;48.312;9.246;2022-07-09T17:02:47;94312.91;;;22.29;45.20
71057;BME280;58380;48.312;9.246;2022-07-09T17:05:16;94316.41;;;22.21;42.48
71057;BME280;58380;48.312;9.246;2022-07-09T17:07:44;94315.34;;;21.90;42.97
71057;BME280;58380;48.312;9.246;2022-07-09T17:10:16;94318.19;;;21.85;43.58
71057;BME280;58380;48.312;9.246;2022-07-09T17:12:45;94286.16;;;21.58;44.91
71057;BME280;58380;48.312;9.246;2022-07-09T17:15:13;94308.22;;;21.77;44.69
71057;BME280;58380;48.312;9.246;2022-07-09T17:17:42;94309.28;;;21.67;43.94
71057;BME280;58380;48.312;9.246;2022-07-09T17:20:10;94313.66;;;21.54;44.92
71057;BME280;58380;48.312;9.246;2022-07-09T17:22:39;94294.88;;;21.32;44.91
71057;BME280;58380;48.312;9.246;2022-07-09T17:25:08;94308.44;;;21.27;44.72
71057;BME280;58380;48.312;9.246;2022-07-09T17:27:39;94280.78;;;20.95;45.07
71057;BME280;58380;48.312;9.246;2022-07-09T17:30:08;94307.22;;;21.10;45.39
71057;BME280;58380;48.312;9.246;2022-07-09T17:32:38;94300.28;;;21.09;46.92
71057;BME280;58380;48.312;9.246;2022-07-09T17:35:07;94269.38;;;20.89;46.69
71057;BME280;58380;48.312;9.246;2022-07-09T17:37:38;94299.72;;;20.99;46.11
71057;BME280;58380;48.312;9.246;2022-07-09T17:40:08;94307.34;;;21.05;46.03
71057;BME280;58380;48.312;9.246;2022-07-09T17:42:41;94280.00;;;20.95;46.25
71057;BME280;58380;48.312;9.246;2022-07-09T17:45:09;94301.44;;;21.17;46.44
71057;BME280;58380;48.312;9.246;2022-07-09T17:47:38;94308.09;;;21.20;46.52
71057;BME280;58380;48.312;9.246;2022-07-09T17:50:07;94277.69;;;21.10;46.85
71057;BME280;58380;48.312;9.246;2022-07-09T17:52:35;94309.72;;;21.29;46.17
71057;BME280;58380;48.312;9.246;2022-07-09T17:55:05;94311.13;;;21.27;45.97
71057;BME280;58380;48.312;9.246;2022-07-09T17:57:53;94311.56;;;21.20;48.07
71057;BME280;58380;48.312;9.246;2022-07-09T18:00:27;94312.59;;;21.10;50.12
71057;BME280;58380;48.312;9.246;2022-07-09T18:02:57;94302.41;;;20.99;50.78
71057;BME280;58380;48.312;9.246;2022-07-09T18:05:26;94305.72;;;20.96;49.69
71057;BME280;58380;48.312;9.246;2022-07-09T18:07:55;94290.16;;;20.84;51.20
71057;BME280;58380;48.312;9.246;2022-07-09T18:10:25;94270.44;;;20.57;51.10
71057;BME280;58380;48.312;9.246;2022-07-09T18:12:56;94289.75;;;20.54;49.62
71057;BME280;58380;48.312;9.246;2022-07-09T18:15:26;94299.31;;;20.60;51.19
71057;BME280;58380;48.312;9.246;2022-07-09T18:17:55;94275.88;;;20.30;51.71
71057;BME280;58380;48.312;9.246;2022-07-09T18:20:23;94273.47;;;20.28;52.48
71057;BME280;58380;48.312;9.246;2022-07-09T18:22:52;94290.47;;;20.23;53.47
71057;BME280;58380;48.312;9.246;2022-07-09T18:25:22;94307.22;;;20.29;52.81
71057;BME280;58380;48.312;9.246;2022-07-09T18:27:51;94302.47;;;20.26;53.87
71057;BME280;58380;48.312;9.246;2022-07-09T18:30:22;94305.56;;;20.19;54.37
71057;BME280;58380;48.312;9.246;2022-07-09T18:32:51;94298.16;;;20.02;54.54
71057;BME280;58380;48.312;9.246;2022-07-09T18:35:19;94306.41;;;19.92;55.58
71057;BME280;58380;48.312;9.246;2022-07-09T18:37:48;94297.47;;;19.83;56.00
71057;BME280;58380;48.312;9.246;2022-07-09T18:40:16;94288.44;;;19.79;55.39
71057;BME280;58380;48.312;9.246;2022-07-09T18:42:45;94278.13;;;19.58;56.38
71057;BME280;58380;48.312;9.246;2022-07-09T18:45:14;94272.28;;;19.43;57.30
71057;BME280;58380;48.312;9.246;2022-07-09T18:47:45;94301.53;;;19.53;57.26
71057;BME280;58380;48.312;9.246;2022-07-09T18:50:13;94299.22;;;19.46;58.03
71057;BME280;58380;48.312;9.246;2022-07-09T18:52:42;94288.31;;;19.29;58.73
71057;BME280;58380;48.312;9.246;2022-07-09T18:55:10;94300.91;;;19.28;59.13
71057;BME280;58380;48.312;9.246;2022-07-09T18:57:39;94295.22;;;19.16;59.87
71057;BME280;58380;48.312;9.246;2022-07-09T19:00:08;94267.03;;;18.77;60.02
71057;BME280;58380;48.312;9.246;2022-07-09T19:02:40;94295.53;;;18.82;59.79
71057;BME280;58380;48.312;9.246;2022-07-09T19:05:11;94298.06;;;18.73;58.28
71057;BME280;58380;48.312;9.246;2022-07-09T19:07:40;94289.91;;;18.64;59.11
71057;BME280;58380;48.312;9.246;2022-07-09T19:10:09;94291.00;;;18.44;59.62
71057;BME280;58380;48.312;9.246;2022-07-09T19:12:38;94296.59;;;18.29;60.72
71057;BME280;58380;48.312;9.246;2022-07-09T19:15:08;94292.47;;;18.18;61.63
71057;BME280;58380;48.312;9.246;2022-07-09T19:17:39;94305.53;;;18.00;62.75
71057;BME280;58380;48.312;9.246;2022-07-09T19:20:11;94297.72;;;17.85;63.10
71057;BME280;58380;48.312;9.246;2022-07-09T19:22:41;94287.59;;;17.58;63.13
71057;BME280;58380;48.312;9.246;2022-07-09T19:25:09;94306.88;;;17.55;64.15
71057;BME280;58380;48.312;9.246;2022-07-09T19:27:38;94305.44;;;17.38;64.68
71057;BME280;58380;48.312;9.246;2022-07-09T19:30:08;94305.34;;;17.19;65.45
71057;BME280;58380;48.312;9.246;2022-07-09T19:32:38;94308.91;;;17.10;66.30
71057;BME280;58380;48.312;9.246;2022-07-09T19:35:21;94304.19;;;17.01;66.59
71057;BME280;58380;48.312;9.246;2022-07-09T19:37:50;94284.66;;;16.77;67.31
71057;BME280;58380;48.312;9.246;2022-07-09T19:40:19;94297.75;;;16.78;67.29
71057;BME280;58380;48.312;9.246;2022-07-09T19:42:47;94317.19;;;16.79;67.55